sensor_id;sensor_type;location;lat;lon;timestamp;P1;durP1;ratioP1;P2;durP2;ratioP2
72882;SDS011;61017;37.812;-122.286;2023-11-19T00:00:12;3.75;;;1.42;;
72882;SDS011;61017;37.812;-122.286;2023-11-19T00:01:44;3.30;;;1.10;;
72882;SDS011;61017;37.812;-122.286;2023-11-19T00:03:16;3.03;;;1.20;;
72882;SDS011;61017;37.812;-122.286;2023-11-19T00:04:47;3.83;;;1.35;;
72882;SDS011;61017;37.812;-122.286;2023-11-19T00:06:21;2.90;;;1.08;;
72882;SDS011;61017;37.812;-122.286;2023-11-19T00:07:53;4.10;;;1.30;;
72882;SDS011;61017;37.812;-122.286;2023-11-19T00:09:25;3.83;;;1.35;;
72882;SDS011;61017;37.812;-122.286;2023-11-19T00:10:56;4.32;;;1.30;;
72882;SDS011;61017;37.812;-122.286;2023-11-19T00:12:31;3.67;;;1.55;;
72882;SDS011;61017;37.812;-122.286;2023-11-19T00:14:06;4.20;;;1.30;;
72882;SDS011;61017;37.812;-122.286;2023-11-19T00:15:37;4.72;;;1.60;;
72882;SDS011;61017;37.812;-122.286;2023-11-19T00:17:09;4.53;;;1.27;;
72882;SDS011;61017;37.812;-122.286;2023-11-19T00:18:40;4.30;;;1.45;;
72882;SDS011;61017;37.812;-122.286;2023-11-19T00:20:12;4.13;;;1.55;;
72882;SDS011;61017;37.812;-122.286;2023-11-19T00:21:48;3.17;;;1.40;;
72882;SDS011;61017;37.812;-122.286;2023-11-19T00:23:19;3.88;;;1.40;;
72882;SDS011;61017;37.812;-122.286;2023-11-19T00:24:51;4.25;;;1.42;;
72882;SDS011;61017;37.812;-122.286;2023-11-19T00:26:22;4.18;;;1.35;;
72882;SDS011;61017;37.812;-122.286;2023-11-19T00:27:56;3.53;;;1.27;;
72882;SDS011;61017;37.812;-122.286;2023-11-19T00:29:28;4.35;;;1.50;;
72882;SDS011;61017;37.812;-122.286;2023-11-19T00:30:59;4.00;;;1.33;;
72882;SDS011;61017;37.812;-122.286;2023-11-19T00:32:31;4.32;;;1.52;;
72882;SDS011;61017;37.812;-122.286;2023-11-19T00:34:03;3.42;;;1.35;;
72882;SDS011;61017;37.812;-122.286;2023-11-19T00:35:35;4.95;;;1.58;;
72882;SDS011;61017;37.812;-122.286;2023-11-19T00:37:07;4.88;;;1.55;;
72882;SDS011;61017;37.812;-122.286;2023-11-19T00:38:38;3.47;;;1.50;;
72882;SDS011;61017;37.812;-122.286;2023-11-19T00:40:13;5.05;;;1.48;;
72882;SDS011;61017;37.812;-122.286;2023-11-19T00:41:45;5.55;;;1.90;;
72882;SDS011;61017;37.812;-122.286;2023-11-19T00:43:16;4.00;;;1.52;;
72882;SDS011;61017;37.812;-122.286;2023-11-19T00:44:48;4.53;;;1.38;;
72882;SDS011;61017;37.812;-122.286;2023-11-19T00:46:20;4.95;;;1.67;;
72882;SDS011;61017;37.812;-122.286;2023-11-19T00:47:51;4.78;;;1.60;;
72882;SDS011;61017;37.812;-122.286;2023-11-19T00:49:23;4.50;;;1.50;;
72882;SDS011;61017;37.812;-122.286;2023-11-19T00:50:55;4.68;;;1.60;;
72882;SDS011;61017;37.812;-122.286;2023-11-19T00:52:27;5.70;;;1.70;;
72882;SDS011;61017;37.812;-122.286;2023-11-19T00:53:58;4.97;;;1.50;;
72882;SDS011;61017;37.812;-122.286;2023-11-19T00:55:30;6.90;;;2.05;;
72882;SDS011;61017;37.812;-122.286;2023-11-19T00:57:02;3.92;;;1.60;;
72882;SDS011;61017;37.812;-122.286;2023-11-19T00:58:33;5.35;;;1.70;;
72882;SDS011;61017;37.812;-122.286;2023-11-19T01:00:08;5.18;;;1.75;;
72882;SDS011;61017;37.812;-122.286;2023-11-19T01:03:15;5.60;;;1.85;;
72882;SDS011;61017;37.812;-122.286;2023-11-19T01:04:46;4.93;;;1.48;;
72882;SDS011;61017;37.812;-122.286;2023-11-19T01:06:27;5.55;;;1.67;;
72882;SDS011;61017;37.812;-122.286;2023-11-19T01:08:00;5.57;;;1.80;;
72882;SDS011;61017;37.812;-122.286;2023-11-19T01:09:32;6.25;;;1.73;;
72882;SDS011;61017;37.812;-122.286;2023-11-19T01:11:04;6.37;;;1.83;;
72882;SDS011;61017;37.812;-122.286;2023-11-19T01:12:35;6.38;;;1.73;;
72882;SDS011;61017;37.812;-122.286;2023-11-19T01:14:07;7.35;;;1.90;;
72882;SDS011;61017;37.812;-122.286;2023-11-19T01:15:42;4.88;;;1.60;;
72882;SDS011;61017;37.812;-122.286;2023-11-19T01:17:14;6.00;;;1.80;;
72882;SDS011;61017;37.812;-122.286;2023-11-19T01:18:49;6.15;;;1.73;;
72882;SDS011;61017;37.812;-122.286;2023-11-19T01:20:20;7.65;;;2.05;;
72882;SDS011;61017;37.812;-122.286;2023-11-19T01:21:52;6.00;;;1.85;;
72882;SDS011;61017;37.812;-122.286;2023-11-19T01:23:24;6.82;;;1.90;;
72882;SDS011;61017;37.812;-122.286;2023-11-19T01:24:56;4.57;;;1.80;;
72882;SDS011;61017;37.812;-122.286;2023-11-19T01:26:34;4.65;;;1.90;;
72882;SDS011;61017;37.812;-122.286;2023-11-19T01:28:05;6.43;;;1.90;;
72882;SDS011;61017;37.812;-122.286;2023-11-19T01:29:39;6.95;;;1.92;;
72882;SDS011;61017;37.812;-122.286;2023-11-19T01:31:11;6.40;;;1.88;;
72882;SDS011;61017;37.812;-122.286;2023-11-19T01:32:45;7.43;;;2.00;;
72882;SDS011;61017;37.812;-122.286;2023-11-19T01:34:16;5.43;;;1.80;;
72882;SDS011;61017;37.812;-122.286;2023-11-19T01:35:48;5.63;;;1.60;;
72882;SDS011;61017;37.812;-122.286;2023-11-19T01:37:20;5.35;;;1.75;;
72882;SDS011;61017;37.812;-122.286;2023-11-19T01:38:51;6.63;;;1.85;;
72882;SDS011;61017;37.812;-122.286;2023-11-19T01:40:23;6.32;;;2.00;;
72882;SDS011;61017;37.812;-122.286;2023-11-19T01:41:54;6.88;;;2.00;;
72882;SDS011;61017;37.812;-122.286;2023-11-19T01:43:38;7.18;;;2.28;;
72882;SDS011;61017;37.812;-122.286;2023-11-19T01:45:10;5.57;;;1.98;;
72882;SDS011;61017;37.812;-122.286;2023-11-19T01:46:57;5.43;;;1.77;;
72882;SDS011;61017;37.812;-122.286;2023-11-19T01:48:31;4.65;;;1.73;;
72882;SDS011;61017;37.812;-122.286;2023-11-19T01:50:07;4.38;;;1.60;;
72882;SDS011;61017;37.812;-122.286;2023-11-19T01:51:39;7.43;;;2.03;;
72882;SDS011;61017;37.812;-122.286;2023-11-19T01:53:11;5.05;;;1.70;;
72882;SDS011;61017;37.812;-122.286;2023-11-19T01:54:45;6.85;;;1.90;;
72882;SDS011;61017;37.812;-122.286;2023-11-19T01:56:18;6.47;;;1.80;;
72882;SDS011;61017;37.812;-122.286;2023-11-19T01:57:51;6.18;;;2.10;;
72882;SDS011;61017;37.812;-122.286;2023-11-19T01:59:27;8.32;;;2.20;;
72882;SDS011;61017;37.812;-122.286;2023-11-19T02:00:59;4.60;;;1.80;;
72882;SDS011;61017;37.812;-122.286;2023-11-19T02:02:30;6.40;;;2.08;;
72882;SDS011;61017;37.812;-122.286;2023-11-19T02:04:02;7.30;;;2.45;;
72882;SDS011;61017;37.812;-122.286;2023-11-19T02:05:36;5.85;;;1.85;;
72882;SDS011;61017;37.812;-122.286;2023-11-19T02:07:09;7.05;;;1.98;;
72882;SDS011;61017;37.812;-122.286;2023-11-19T02:08:40;7.05;;;1.98;;
72882;SDS011;61017;37.812;-122.286;2023-11-19T02:10:12;4.83;;;1.90;;
72882;SDS011;61017;37.812;-122.286;2023-11-19T02:11:44;7.63;;;2.13;;
72882;SDS011;61017;37.812;-122.286;2023-11-19T02:13:16;8.52;;;2.15;;
72882;SDS011;61017;37.812;-122.286;2023-11-19T02:14:48;6.82;;;2.10;;
72882;SDS011;61017;37.812;-122.286;2023-11-19T02:16:20;6.45;;;2.00;;
72882;SDS011;61017;37.812;-122.286;2023-11-19T02:17:51;5.85;;;2.10;;
72882;SDS011;61017;37.812;-122.286;2023-11-19T02:19:23;6.18;;;1.92;;
72882;SDS011;61017;37.812;-122.286;2023-11-19T02:20:55;5.72;;;1.73;;
72882;SDS011;61017;37.812;-122.286;2023-11-19T02:22:30;6.55;;;1.90;;
72882;SDS011;61017;37.812;-122.286;2023-11-19T02:24:05;6.18;;;1.90;;
72882;SDS011;61017;37.812;-122.286;2023-11-19T02:25:39;6.35;;;1.85;;
72882;SDS011;61017;37.812;-122.286;2023-11-19T02:27:14;4.00;;;1.63;;
72882;SDS011;61017;37.812;-122.286;2023-11-19T02:28:57;5.65;;;1.98;;
72882;SDS011;61017;37.812;-122.286;2023-11-19T02:30:29;5.50;;;1.92;;
72882;SDS011;61017;37.812;-122.286;2023-11-19T02:32:00;7.00;;;1.95;;
72882;SDS011;61017;37.812;-122.286;2023-11-19T02:33:32;6.88;;;2.05;;
72882;SDS011;61017;37.812;-122.286;2023-11-19T02:35:05;5.95;;;1.85;;
72882;SDS011;61017;37.812;-122.286;2023-11-19T02:36:37;5.95;;;1.75;;
72882;SDS011;61017;37.812;-122.286;2023-11-19T02:38:08;7.13;;;2.10;;
72882;SDS011;61017;37.812;-122.286;2023-11-19T02:39:40;6.50;;;1.95;;
72882;SDS011;61017;37.812;-122.286;2023-11-19T02:41:13;5.55;;;2.10;;
72882;SDS011;61017;37.812;-122.286;2023-11-19T02:44:16;6.68;;;2.28;;
72882;SDS011;61017;37.812;-122.286;2023-11-19T02:45:48;7.00;;;2.20;;
72882;SDS011;61017;37.812;-122.286;2023-11-19T02:47:20;5.30;;;2.00;;
72882;SDS011;61017;37.812;-122.286;2023-11-19T02:48:51;5.22;;;1.98;;
72882;SDS011;61017;37.812;-122.286;2023-11-19T02:50:23;6.82;;;2.08;;
72882;SDS011;61017;37.812;-122.286;2023-11-19T02:51:54;6.50;;;1.90;;
72882;SDS011;61017;37.812;-122.286;2023-11-19T02:53:26;6.32;;;1.98;;
72882;SDS011;61017;37.812;-122.286;2023-11-19T02:54:57;5.30;;;1.95;;
72882;SDS011;61017;37.812;-122.286;2023-11-19T02:56:35;7.43;;;2.20;;
72882;SDS011;61017;37.812;-122.286;2023-11-19T02:58:06;6.07;;;1.90;;
72882;SDS011;61017;37.812;-122.286;2023-11-19T02:59:38;7.30;;;2.17;;
72882;SDS011;61017;37.812;-122.286;2023-11-19T03:01:10;6.32;;;1.98;;
72882;SDS011;61017;37.812;-122.286;2023-11-19T03:02:42;6.07;;;2.15;;
72882;SDS011;61017;37.812;-122.286;2023-11-19T03:04:15;6.45;;;1.90;;
72882;SDS011;61017;37.812;-122.286;2023-11-19T03:05:47;5.13;;;2.10;;
72882;SDS011;61017;37.812;-122.286;2023-11-19T03:07:19;7.10;;;2.15;;
72882;SDS011;61017;37.812;-122.286;2023-11-19T03:08:50;5.47;;;2.00;;
72882;SDS011;61017;37.812;-122.286;2023-11-19T03:10:22;6.85;;;2.00;;
72882;SDS011;61017;37.812;-122.286;2023-11-19T03:11:53;3.65;;;1.60;;
72882;SDS011;61017;37.812;-122.286;2023-11-19T03:13:25;4.10;;;1.70;;
72882;SDS011;61017;37.812;-122.286;2023-11-19T03:14:57;4.90;;;1.70;;
72882;SDS011;61017;37.812;-122.286;2023-11-19T03:16:28;4.95;;;1.83;;
72882;SDS011;61017;37.812;-122.286;2023-11-19T03:18:00;5.15;;;1.60;;
72882;SDS011;61017;37.812;-122.286;2023-11-19T03:19:32;5.57;;;2.00;;
72882;SDS011;61017;37.812;-122.286;2023-11-19T03:21:03;6.72;;;1.90;;
72882;SDS011;61017;37.812;-122.286;2023-11-19T03:22:37;4.50;;;1.73;;
72882;SDS011;61017;37.812;-122.286;2023-11-19T03:24:09;6.32;;;1.70;;
72882;SDS011;61017;37.812;-122.286;2023-11-19T03:25:41;5.00;;;1.85;;
72882;SDS011;61017;37.812;-122.286;2023-11-19T03:27:12;4.50;;;1.60;;
72882;SDS011;61017;37.812;-122.286;2023-11-19T03:28:44;4.85;;;1.77;;
72882;SDS011;61017;37.812;-122.286;2023-11-19T03:30:15;4.40;;;1.80;;
72882;SDS011;61017;37.812;-122.286;2023-11-19T03:31:48;5.47;;;1.90;;
72882;SDS011;61017;37.812;-122.286;2023-11-19T03:33:19;5.53;;;1.70;;
72882;SDS011;61017;37.812;-122.286;2023-11-19T03:34:51;4.35;;;1.60;;
72882;SDS011;61017;37.812;-122.286;2023-11-19T03:36:22;4.95;;;1.77;;
72882;SDS011;61017;37.812;-122.286;2023-11-19T03:37:54;5.53;;;1.83;;
72882;SDS011;61017;37.812;-122.286;2023-11-19T03:39:26;5.97;;;1.80;;
72882;SDS011;61017;37.812;-122.286;2023-11-19T03:40:58;4.57;;;1.90;;
72882;SDS011;61017;37.812;-122.286;2023-11-19T03:42:30;3.97;;;1.48;;
72882;SDS011;61017;37.812;-122.286;2023-11-19T03:44:02;4.72;;;1.60;;
72882;SDS011;61017;37.812;-122.286;2023-11-19T03:45:33;4.50;;;1.65;;
72882;SDS011;61017;37.812;-122.286;2023-11-19T03:47:05;5.03;;;1.80;;
72882;SDS011;61017;37.812;-122.286;2023-11-19T03:48:36;4.72;;;1.70;;
72882;SDS011;61017;37.812;-122.286;2023-11-19T03:50:08;5.18;;;1.60;;
72882;SDS011;61017;37.812;-122.286;2023-11-19T03:51:39;5.07;;;1.80;;
72882;SDS011;61017;37.812;-122.286;2023-11-19T03:53:11;5.65;;;1.77;;
72882;SDS011;61017;37.812;-122.286;2023-11-19T03:54:44;4.65;;;1.80;;
72882;SDS011;61017;37.812;-122.286;2023-11-19T03:56:15;4.47;;;1.67;;
72882;SDS011;61017;37.812;-122.286;2023-11-19T03:57:47;4.55;;;1.75;;
72882;SDS011;61017;37.812;-122.286;2023-11-19T03:59:18;4.78;;;1.50;;
72882;SDS011;61017;37.812;-122.286;2023-11-19T04:00:50;4.25;;;1.63;;
72882;SDS011;61017;37.812;-122.286;2023-11-19T04:02:21;5.38;;;1.92;;
72882;SDS011;61017;37.812;-122.286;2023-11-19T04:03:53;4.55;;;1.60;;
72882;SDS011;61017;37.812;-122.286;2023-11-19T04:05:24;4.32;;;1.80;;
72882;SDS011;61017;37.812;-122.286;2023-11-19T04:06:56;4.28;;;1.60;;
72882;SDS011;61017;37.812;-122.286;2023-11-19T04:08:27;3.78;;;1.58;;
72882;SDS011;61017;37.812;-122.286;2023-11-19T04:09:59;4.40;;;1.58;;
72882;SDS011;61017;37.812;-122.286;2023-11-19T04:11:30;4.10;;;1.40;;
72882;SDS011;61017;37.812;-122.286;2023-11-19T04:13:02;3.58;;;1.52;;
72882;SDS011;61017;37.812;-122.286;2023-11-19T04:14:34;4.78;;;1.67;;
72882;SDS011;61017;37.812;-122.286;2023-11-19T04:16:07;4.75;;;1.80;;
72882;SDS011;61017;37.812;-122.286;2023-11-19T04:17:39;4.38;;;1.63;;
72882;SDS011;61017;37.812;-122.286;2023-11-19T04:19:11;4.10;;;1.50;;
72882;SDS011;61017;37.812;-122.286;2023-11-19T04:20:42;4.50;;;1.60;;
72882;SDS011;61017;37.812;-122.286;2023-11-19T04:22:14;4.70;;;1.63;;
72882;SDS011;61017;37.812;-122.286;2023-11-19T04:23:45;3.65;;;1.40;;
72882;SDS011;61017;37.812;-122.286;2023-11-19T04:25:17;4.68;;;1.40;;
72882;SDS011;61017;37.812;-122.286;2023-11-19T04:26:48;4.38;;;1.70;;
72882;SDS011;61017;37.812;-122.286;2023-11-19T04:28:20;4.97;;;1.58;;
72882;SDS011;61017;37.812;-122.286;2023-11-19T04:29:51;5.50;;;1.65;;
72882;SDS011;61017;37.812;-122.286;2023-11-19T04:31:23;7.10;;;1.80;;
72882;SDS011;61017;37.812;-122.286;2023-11-19T04:32:59;4.05;;;1.58;;
72882;SDS011;61017;37.812;-122.286;2023-11-19T04:34:30;4.65;;;1.58;;
72882;SDS011;61017;37.812;-122.286;2023-11-19T04:36:02;4.60;;;1.70;;
72882;SDS011;61017;37.812;-122.286;2023-11-19T04:37:34;4.28;;;1.60;;
72882;SDS011;61017;37.812;-122.286;2023-11-19T04:39:05;4.43;;;1.40;;
72882;SDS011;61017;37.812;-122.286;2023-11-19T04:40:37;4.35;;;1.60;;
72882;SDS011;61017;37.812;-122.286;2023-11-19T04:42:08;5.43;;;1.60;;
72882;SDS011;61017;37.812;-122.286;2023-11-19T04:43:40;6.40;;;1.50;;
72882;SDS011;61017;37.812;-122.286;2023-11-19T04:45:11;3.92;;;1.27;;
72882;SDS011;61017;37.812;-122.286;2023-11-19T04:46:43;4.40;;;1.40;;
72882;SDS011;61017;37.812;-122.286;2023-11-19T04:48:14;4.55;;;1.45;;
72882;SDS011;61017;37.812;-122.286;2023-11-19T04:49:46;6.18;;;1.73;;
72882;SDS011;61017;37.812;-122.286;2023-11-19T04:51:18;4.18;;;1.58;;
72882;SDS011;61017;37.812;-122.286;2023-11-19T04:52:49;4.90;;;1.80;;
72882;SDS011;61017;37.812;-122.286;2023-11-19T04:54:21;4.55;;;1.70;;
72882;SDS011;61017;37.812;-122.286;2023-11-19T04:55:53;4.20;;;1.42;;
72882;SDS011;61017;37.812;-122.286;2023-11-19T04:57:24;4.90;;;1.75;;
72882;SDS011;61017;37.812;-122.286;2023-11-19T04:58:56;6.45;;;1.83;;
72882;SDS011;61017;37.812;-122.286;2023-11-19T05:00:27;5.50;;;1.70;;
72882;SDS011;61017;37.812;-122.286;2023-11-19T05:01:59;4.63;;;1.60;;
72882;SDS011;61017;37.812;-122.286;2023-11-19T05:03:31;5.60;;;1.75;;
72882;SDS011;61017;37.812;-122.286;2023-11-19T05:05:02;6.25;;;2.03;;
72882;SDS011;61017;37.812;-122.286;2023-11-19T05:06:34;6.38;;;1.90;;
72882;SDS011;61017;37.812;-122.286;2023-11-19T05:08:06;5.18;;;1.98;;
72882;SDS011;61017;37.812;-122.286;2023-11-19T05:09:38;4.90;;;2.00;;
72882;SDS011;61017;37.812;-122.286;2023-11-19T05:11:09;5.38;;;1.77;;
72882;SDS011;61017;37.812;-122.286;2023-11-19T05:12:41;6.95;;;2.20;;
72882;SDS011;61017;37.812;-122.286;2023-11-19T05:14:13;6.28;;;2.10;;
72882;SDS011;61017;37.812;-122.286;2023-11-19T05:15:44;8.18;;;2.53;;
72882;SDS011;61017;37.812;-122.286;2023-11-19T05:17:17;8.85;;;2.58;;
72882;SDS011;61017;37.812;-122.286;2023-11-19T05:20:20;9.32;;;2.88;;
72882;SDS011;61017;37.812;-122.286;2023-11-19T05:21:52;7.60;;;2.47;;
72882;SDS011;61017;37.812;-122.286;2023-11-19T05:23:26;7.43;;;2.33;;
72882;SDS011;61017;37.812;-122.286;2023-11-19T05:24:58;7.43;;;2.38;;
72882;SDS011;61017;37.812;-122.286;2023-11-19T05:26:30;9.68;;;2.63;;
72882;SDS011;61017;37.812;-122.286;2023-11-19T05:28:01;8.07;;;2.28;;
72882;SDS011;61017;37.812;-122.286;2023-11-19T05:29:33;7.72;;;2.67;;
72882;SDS011;61017;37.812;-122.286;2023-11-19T05:31:04;11.48;;;3.25;;
72882;SDS011;61017;37.812;-122.286;2023-11-19T05:32:39;9.40;;;2.95;;
72882;SDS011;61017;37.812;-122.286;2023-11-19T05:34:10;9.23;;;3.28;;
72882;SDS011;61017;37.812;-122.286;2023-11-19T05:35:42;12.13;;;2.90;;
72882;SDS011;61017;37.812;-122.286;2023-11-19T05:37:13;8.85;;;2.70;;
72882;SDS011;61017;37.812;-122.286;2023-11-19T05:38:45;7.80;;;2.60;;
72882;SDS011;61017;37.812;-122.286;2023-11-19T05:40:17;9.60;;;3.13;;
72882;SDS011;61017;37.812;-122.286;2023-11-19T05:41:48;10.13;;;2.75;;
72882;SDS011;61017;37.812;-122.286;2023-11-19T05:43:23;11.60;;;3.30;;
72882;SDS011;61017;37.812;-122.286;2023-11-19T05:44:55;15.38;;;3.58;;
72882;SDS011;61017;37.812;-122.286;2023-11-19T05:46:26;10.43;;;3.15;;
72882;SDS011;61017;37.812;-122.286;2023-11-19T05:47:58;14.00;;;3.83;;
72882;SDS011;61017;37.812;-122.286;2023-11-19T05:49:31;9.93;;;2.95;;
72882;SDS011;61017;37.812;-122.286;2023-11-19T05:51:06;9.50;;;3.05;;
72882;SDS011;61017;37.812;-122.286;2023-11-19T05:52:38;9.75;;;3.10;;
72882;SDS011;61017;37.812;-122.286;2023-11-19T05:54:10;8.98;;;2.90;;
72882;SDS011;61017;37.812;-122.286;2023-11-19T05:55:41;8.00;;;2.83;;
72882;SDS011;61017;37.812;-122.286;2023-11-19T05:57:13;14.57;;;4.25;;
72882;SDS011;61017;37.812;-122.286;2023-11-19T05:58:45;12.23;;;3.13;;
72882;SDS011;61017;37.812;-122.286;2023-11-19T06:00:16;11.80;;;3.45;;
72882;SDS011;61017;37.812;-122.286;2023-11-19T06:01:51;14.77;;;4.13;;
72882;SDS011;61017;37.812;-122.286;2023-11-19T06:03:22;14.15;;;4.30;;
72882;SDS011;61017;37.812;-122.286;2023-11-19T06:04:54;11.35;;;3.40;;
72882;SDS011;61017;37.812;-122.286;2023-11-19T06:06:26;12.77;;;3.35;;
72882;SDS011;61017;37.812;-122.286;2023-11-19T06:07:58;11.20;;;3.33;;
72882;SDS011;61017;37.812;-122.286;2023-11-19T06:09:30;13.07;;;3.60;;
72882;SDS011;61017;37.812;-122.286;2023-11-19T06:11:02;14.45;;;4.10;;
72882;SDS011;61017;37.812;-122.286;2023-11-19T06:12:34;10.97;;;3.43;;
72882;SDS011;61017;37.812;-122.286;2023-11-19T06:14:06;11.90;;;3.53;;
72882;SDS011;61017;37.812;-122.286;2023-11-19T06:15:37;13.80;;;4.10;;
72882;SDS011;61017;37.812;-122.286;2023-11-19T06:17:10;12.68;;;3.58;;
72882;SDS011;61017;37.812;-122.286;2023-11-19T06:18:42;14.77;;;3.70;;
72882;SDS011;61017;37.812;-122.286;2023-11-19T06:20:16;14.27;;;3.60;;
72882;SDS011;61017;37.812;-122.286;2023-11-19T06:21:48;14.65;;;3.63;;
72882;SDS011;61017;37.812;-122.286;2023-11-19T06:23:22;12.13;;;3.55;;
72882;SDS011;61017;37.812;-122.286;2023-11-19T06:24:56;14.85;;;3.88;;
72882;SDS011;61017;37.812;-122.286;2023-11-19T06:26:28;12.65;;;3.65;;
72882;SDS011;61017;37.812;-122.286;2023-11-19T06:28:00;16.65;;;4.18;;
72882;SDS011;61017;37.812;-122.286;2023-11-19T06:29:31;12.77;;;3.92;;
72882;SDS011;61017;37.812;-122.286;2023-11-19T06:31:03;13.02;;;3.70;;
72882;SDS011;61017;37.812;-122.286;2023-11-19T06:32:35;13.63;;;3.45;;
72882;SDS011;61017;37.812;-122.286;2023-11-19T06:34:07;12.75;;;3.35;;
72882;SDS011;61017;37.812;-122.286;2023-11-19T06:35:38;13.57;;;3.45;;
72882;SDS011;61017;37.812;-122.286;2023-11-19T06:37:10;14.02;;;4.22;;
72882;SDS011;61017;37.812;-122.286;2023-11-19T06:38:42;13.15;;;3.58;;
72882;SDS011;61017;37.812;-122.286;2023-11-19T06:40:16;14.93;;;4.13;;
72882;SDS011;61017;37.812;-122.286;2023-11-19T06:43:18;16.70;;;4.00;;
72882;SDS011;61017;37.812;-122.286;2023-11-19T06:44:50;13.65;;;3.72;;
72882;SDS011;61017;37.812;-122.286;2023-11-19T06:46:22;13.80;;;3.60;;
72882;SDS011;61017;37.812;-122.286;2023-11-19T06:47:53;13.70;;;4.18;;
72882;SDS011;61017;37.812;-122.286;2023-11-19T06:49:28;15.02;;;3.70;;
72882;SDS011;61017;37.812;-122.286;2023-11-19T06:51:04;16.33;;;4.25;;
72882;SDS011;61017;37.812;-122.286;2023-11-19T06:52:36;12.50;;;3.63;;
72882;SDS011;61017;37.812;-122.286;2023-11-19T06:54:07;13.13;;;3.47;;
72882;SDS011;61017;37.812;-122.286;2023-11-19T06:55:39;15.02;;;3.80;;
72882;SDS011;61017;37.812;-122.286;2023-11-19T06:57:11;13.55;;;3.35;;
72882;SDS011;61017;37.812;-122.286;2023-11-19T06:58:43;14.20;;;3.42;;
72882;SDS011;61017;37.812;-122.286;2023-11-19T07:00:15;12.63;;;3.67;;
72882;SDS011;61017;37.812;-122.286;2023-11-19T07:01:49;12.65;;;4.28;;
72882;SDS011;61017;37.812;-122.286;2023-11-19T07:03:21;12.43;;;3.45;;
72882;SDS011;61017;37.812;-122.286;2023-11-19T07:04:52;12.35;;;3.58;;
72882;SDS011;61017;37.812;-122.286;2023-11-19T07:06:24;16.25;;;3.90;;
72882;SDS011;61017;37.812;-122.286;2023-11-19T07:07:56;11.00;;;3.28;;
72882;SDS011;61017;37.812;-122.286;2023-11-19T07:09:27;12.68;;;3.33;;
72882;SDS011;61017;37.812;-122.286;2023-11-19T07:11:01;13.57;;;3.55;;
72882;SDS011;61017;37.812;-122.286;2023-11-19T07:12:32;11.63;;;3.60;;
72882;SDS011;61017;37.812;-122.286;2023-11-19T07:14:05;13.40;;;3.65;;
72882;SDS011;61017;37.812;-122.286;2023-11-19T07:15:37;16.20;;;3.70;;
72882;SDS011;61017;37.812;-122.286;2023-11-19T07:17:09;12.63;;;3.55;;
72882;SDS011;61017;37.812;-122.286;2023-11-19T07:18:40;13.95;;;3.65;;
72882;SDS011;61017;37.812;-122.286;2023-11-19T07:20:12;13.07;;;3.50;;
72882;SDS011;61017;37.812;-122.286;2023-11-19T07:21:44;11.93;;;3.28;;
72882;SDS011;61017;37.812;-122.286;2023-11-19T07:23:15;13.45;;;3.90;;
72882;SDS011;61017;37.812;-122.286;2023-11-19T07:24:47;12.48;;;3.50;;
72882;SDS011;61017;37.812;-122.286;2023-11-19T07:26:22;14.88;;;3.78;;
72882;SDS011;61017;37.812;-122.286;2023-11-19T07:27:54;12.10;;;3.50;;
72882;SDS011;61017;37.812;-122.286;2023-11-19T07:29:26;12.23;;;3.63;;
72882;SDS011;61017;37.812;-122.286;2023-11-19T07:30:57;14.38;;;3.83;;
72882;SDS011;61017;37.812;-122.286;2023-11-19T07:32:29;10.90;;;3.30;;
72882;SDS011;61017;37.812;-122.286;2023-11-19T07:34:01;10.98;;;3.55;;
72882;SDS011;61017;37.812;-122.286;2023-11-19T07:35:32;14.68;;;3.55;;
72882;SDS011;61017;37.812;-122.286;2023-11-19T07:37:04;12.57;;;3.97;;
72882;SDS011;61017;37.812;-122.286;2023-11-19T07:38:36;15.07;;;4.13;;
72882;SDS011;61017;37.812;-122.286;2023-11-19T07:40:08;13.95;;;3.80;;
72882;SDS011;61017;37.812;-122.286;2023-11-19T07:41:40;13.43;;;4.13;;
72882;SDS011;61017;37.812;-122.286;2023-11-19T07:43:13;14.32;;;4.03;;
72882;SDS011;61017;37.812;-122.286;2023-11-19T07:44:44;15.25;;;3.75;;
72882;SDS011;61017;37.812;-122.286;2023-11-19T07:46:16;12.77;;;3.50;;
72882;SDS011;61017;37.812;-122.286;2023-11-19T07:47:48;13.75;;;3.75;;
72882;SDS011;61017;37.812;-122.286;2023-11-19T07:49:20;13.52;;;3.63;;
72882;SDS011;61017;37.812;-122.286;2023-11-19T07:50:54;12.65;;;3.33;;
72882;SDS011;61017;37.812;-122.286;2023-11-19T07:52:26;14.55;;;4.00;;
72882;SDS011;61017;37.812;-122.286;2023-11-19T07:53:57;13.15;;;4.00;;
72882;SDS011;61017;37.812;-122.286;2023-11-19T07:55:29;12.05;;;3.55;;
72882;SDS011;61017;37.812;-122.286;2023-11-19T07:57:01;14.73;;;3.80;;
72882;SDS011;61017;37.812;-122.286;2023-11-19T07:58:33;14.30;;;3.88;;
72882;SDS011;61017;37.812;-122.286;2023-11-19T08:00:04;11.48;;;3.40;;
72882;SDS011;61017;37.812;-122.286;2023-11-19T08:01:36;9.75;;;3.47;;
72882;SDS011;61017;37.812;-122.286;2023-11-19T08:03:08;13.00;;;3.63;;
72882;SDS011;61017;37.812;-122.286;2023-11-19T08:04:40;14.57;;;4.15;;
72882;SDS011;61017;37.812;-122.286;2023-11-19T08:06:11;11.63;;;3.35;;
72882;SDS011;61017;37.812;-122.286;2023-11-19T08:07:43;11.23;;;3.00;;
72882;SDS011;61017;37.812;-122.286;2023-11-19T08:09:17;11.82;;;3.35;;
72882;SDS011;61017;37.812;-122.286;2023-11-19T08:10:51;11.95;;;3.58;;
72882;SDS011;61017;37.812;-122.286;2023-11-19T08:12:23;13.38;;;3.47;;
72882;SDS011;61017;37.812;-122.286;2023-11-19T08:13:58;13.18;;;3.58;;
72882;SDS011;61017;37.812;-122.286;2023-11-19T08:15:29;13.05;;;4.15;;
72882;SDS011;61017;37.812;-122.286;2023-11-19T08:17:01;10.05;;;3.40;;
72882;SDS011;61017;37.812;-122.286;2023-11-19T08:18:33;10.55;;;3.00;;
72882;SDS011;61017;37.812;-122.286;2023-11-19T08:20:08;12.00;;;3.22;;
72882;SDS011;61017;37.812;-122.286;2023-11-19T08:21:40;10.80;;;3.15;;
72882;SDS011;61017;37.812;-122.286;2023-11-19T08:23:12;12.25;;;3.08;;
72882;SDS011;61017;37.812;-122.286;2023-11-19T08:24:43;10.98;;;3.17;;
72882;SDS011;61017;37.812;-122.286;2023-11-19T08:26:15;12.48;;;3.20;;
72882;SDS011;61017;37.812;-122.286;2023-11-19T08:27:46;11.02;;;3.38;;
72882;SDS011;61017;37.812;-122.286;2023-11-19T08:29:18;11.60;;;3.42;;
72882;SDS011;61017;37.812;-122.286;2023-11-19T08:30:49;11.20;;;3.13;;
72882;SDS011;61017;37.812;-122.286;2023-11-19T08:32:21;12.52;;;3.40;;
72882;SDS011;61017;37.812;-122.286;2023-11-19T08:33:56;14.07;;;3.38;;
72882;SDS011;61017;37.812;-122.286;2023-11-19T08:35:27;11.52;;;3.05;;
72882;SDS011;61017;37.812;-122.286;2023-11-19T08:36:59;10.25;;;3.10;;
72882;SDS011;61017;37.812;-122.286;2023-11-19T08:38:31;11.90;;;3.35;;
72882;SDS011;61017;37.812;-122.286;2023-11-19T08:40:02;9.82;;;3.00;;
72882;SDS011;61017;37.812;-122.286;2023-11-19T08:41:34;11.77;;;3.30;;
72882;SDS011;61017;37.812;-122.286;2023-11-19T08:43:06;10.18;;;3.25;;
72882;SDS011;61017;37.812;-122.286;2023-11-19T08:44:38;13.15;;;3.35;;
72882;SDS011;61017;37.812;-122.286;2023-11-19T08:46:10;10.30;;;3.08;;
72882;SDS011;61017;37.812;-122.286;2023-11-19T08:47:42;12.07;;;3.22;;
72882;SDS011;61017;37.812;-122.286;2023-11-19T08:49:13;11.77;;;3.30;;
72882;SDS011;61017;37.812;-122.286;2023-11-19T08:50:45;9.38;;;3.30;;
72882;SDS011;61017;37.812;-122.286;2023-11-19T08:52:16;10.00;;;2.85;;
72882;SDS011;61017;37.812;-122.286;2023-11-19T08:53:48;11.50;;;3.35;;